sensor_id;sensor_type;location;lat;lon;timestamp;P1;durP1;ratioP1;P2;durP2;ratioP2
63818;SDS011;49970;54.976;73.248;2022-12-26T00:00:24;10.05;;;4.95;;
63818;SDS011;49970;54.976;73.248;2022-12-26T00:02:56;4.50;;;4.10;;
63818;SDS011;49970;54.976;73.248;2022-12-26T00:05:26;4.93;;;4.53;;
63818;SDS011;49970;54.976;73.248;2022-12-26T00:08:06;7.93;;;4.22;;
63818;SDS011;49970;54.976;73.248;2022-12-26T00:11:38;4.38;;;3.85;;
63818;SDS011;49970;54.976;73.248;2022-12-26T00:14:13;4.13;;;3.72;;
63818;SDS011;49970;54.976;73.248;2022-12-26T00:16:40;9.48;;;3.33;;
63818;SDS011;49970;54.976;73.248;2022-12-26T00:19:08;4.88;;;3.75;;
63818;SDS011;49970;54.976;73.248;2022-12-26T00:21:35;4.50;;;4.20;;
63818;SDS011;49970;54.976;73.248;2022-12-26T00:24:01;4.72;;;3.40;;
63818;SDS011;49970;54.976;73.248;2022-12-26T00:26:29;4.60;;;4.00;;
63818;SDS011;49970;54.976;73.248;2022-12-26T00:28:57;8.20;;;4.82;;
63818;SDS011;49970;54.976;73.248;2022-12-26T00:31:25;6.70;;;4.68;;
63818;SDS011;49970;54.976;73.248;2022-12-26T00:33:56;7.33;;;5.07;;
63818;SDS011;49970;54.976;73.248;2022-12-26T00:36:23;8.82;;;5.50;;
63818;SDS011;49970;54.976;73.248;2022-12-26T00:38:58;12.40;;;4.78;;
63818;SDS011;49970;54.976;73.248;2022-12-26T00:41:31;8.57;;;5.35;;
63818;SDS011;49970;54.976;73.248;2022-12-26T00:44:08;4.53;;;4.13;;
63818;SDS011;49970;54.976;73.248;2022-12-26T00:46:35;4.43;;;3.97;;
63818;SDS011;49970;54.976;73.248;2022-12-26T00:49:01;4.50;;;4.10;;
63818;SDS011;49970;54.976;73.248;2022-12-26T00:51:28;6.82;;;4.10;;
63818;SDS011;49970;54.976;73.248;2022-12-26T00:53:55;6.95;;;4.50;;
63818;SDS011;49970;54.976;73.248;2022-12-26T00:56:23;4.97;;;4.57;;
63818;SDS011;49970;54.976;73.248;2022-12-26T00:58:49;5.75;;;5.00;;
63818;SDS011;49970;54.976;73.248;2022-12-26T01:01:19;4.45;;;4.00;;
63818;SDS011;49970;54.976;73.248;2022-12-26T01:03:48;9.35;;;4.60;;
63818;SDS011;49970;54.976;73.248;2022-12-26T01:06:14;5.90;;;4.75;;
63818;SDS011;49970;54.976;73.248;2022-12-26T01:08:51;6.65;;;5.22;;
63818;SDS011;49970;54.976;73.248;2022-12-26T01:11:18;8.32;;;5.13;;
63818;SDS011;49970;54.976;73.248;2022-12-26T01:14:03;5.60;;;3.85;;
63818;SDS011;49970;54.976;73.248;2022-12-26T01:16:35;4.13;;;3.72;;
63818;SDS011;49970;54.976;73.248;2022-12-26T01:19:12;4.80;;;4.35;;
63818;SDS011;49970;54.976;73.248;2022-12-26T01:21:39;4.72;;;4.18;;
63818;SDS011;49970;54.976;73.248;2022-12-26T01:24:07;5.25;;;4.65;;
63818;SDS011;49970;54.976;73.248;2022-12-26T01:26:38;4.50;;;3.90;;
63818;SDS011;49970;54.976;73.248;2022-12-26T01:29:04;5.10;;;4.70;;
63818;SDS011;49970;54.976;73.248;2022-12-26T01:31:30;4.55;;;3.83;;
63818;SDS011;49970;54.976;73.248;2022-12-26T01:33:57;4.28;;;3.85;;
63818;SDS011;49970;54.976;73.248;2022-12-26T01:36:23;5.15;;;4.75;;
63818;SDS011;49970;54.976;73.248;2022-12-26T01:38:49;5.00;;;4.65;;
63818;SDS011;49970;54.976;73.248;2022-12-26T01:41:15;11.10;;;4.57;;
63818;SDS011;49970;54.976;73.248;2022-12-26T01:43:49;11.60;;;4.18;;
63818;SDS011;49970;54.976;73.248;2022-12-26T01:46:36;4.65;;;4.25;;
63818;SDS011;49970;54.976;73.248;2022-12-26T01:52:07;11.02;;;4.95;;
63818;SDS011;49970;54.976;73.248;2022-12-26T01:54:41;8.45;;;4.60;;
63818;SDS011;49970;54.976;73.248;2022-12-26T01:57:26;4.85;;;4.45;;
63818;SDS011;49970;54.976;73.248;2022-12-26T02:00:06;7.78;;;4.97;;
63818;SDS011;49970;54.976;73.248;2022-12-26T02:02:43;6.82;;;4.15;;
63818;SDS011;49970;54.976;73.248;2022-12-26T02:05:40;7.72;;;4.32;;
63818;SDS011;49970;54.976;73.248;2022-12-26T02:08:19;6.72;;;6.10;;
63818;SDS011;49970;54.976;73.248;2022-12-26T02:13:44;40.72;;;16.23;;
63818;SDS011;49970;54.976;73.248;2022-12-26T02:16:21;61.25;;;20.65;;
63818;SDS011;49970;54.976;73.248;2022-12-26T02:18:52;111.22;;;34.78;;
63818;SDS011;49970;54.976;73.248;2022-12-26T02:24:08;100.80;;;35.33;;
63818;SDS011;49970;54.976;73.248;2022-12-26T02:29:42;48.72;;;25.23;;
63818;SDS011;49970;54.976;73.248;2022-12-26T02:32:38;27.90;;;14.02;;
63818;SDS011;49970;54.976;73.248;2022-12-26T02:43:44;5.68;;;5.13;;
63818;SDS011;49970;54.976;73.248;2022-12-26T02:52:44;16.25;;;4.60;;
63818;SDS011;49970;54.976;73.248;2022-12-26T02:55:32;8.93;;;5.90;;
63818;SDS011;49970;54.976;73.248;2022-12-26T02:58:22;13.70;;;5.18;;
63818;SDS011;49970;54.976;73.248;2022-12-26T03:01:25;6.80;;;5.45;;
63818;SDS011;49970;54.976;73.248;2022-12-26T03:04:21;4.88;;;4.20;;
63818;SDS011;49970;54.976;73.248;2022-12-26T03:07:16;7.25;;;4.85;;
63818;SDS011;49970;54.976;73.248;2022-12-26T03:10:13;5.47;;;5.00;;
63818;SDS011;49970;54.976;73.248;2022-12-26T03:13:03;11.77;;;5.60;;
63818;SDS011;49970;54.976;73.248;2022-12-26T03:15:56;10.02;;;6.50;;
63818;SDS011;49970;54.976;73.248;2022-12-26T03:18:57;8.85;;;6.90;;
63818;SDS011;49970;54.976;73.248;2022-12-26T03:21:40;7.13;;;5.93;;
63818;SDS011;49970;54.976;73.248;2022-12-26T03:24:09;13.60;;;7.45;;
63818;SDS011;49970;54.976;73.248;2022-12-26T03:26:39;22.48;;;12.32;;
63818;SDS011;49970;54.976;73.248;2022-12-26T03:29:13;24.55;;;12.43;;
63818;SDS011;49970;54.976;73.248;2022-12-26T03:32:04;20.77;;;12.75;;
63818;SDS011;49970;54.976;73.248;2022-12-26T03:34:43;27.85;;;13.25;;
63818;SDS011;49970;54.976;73.248;2022-12-26T03:40:24;28.48;;;15.40;;
63818;SDS011;49970;54.976;73.248;2022-12-26T03:49:48;61.95;;;22.88;;
63818;SDS011;49970;54.976;73.248;2022-12-26T03:52:47;47.15;;;20.15;;
63818;SDS011;49970;54.976;73.248;2022-12-26T03:59:02;38.83;;;15.27;;
63818;SDS011;49970;54.976;73.248;2022-12-26T04:01:52;40.35;;;17.02;;
63818;SDS011;49970;54.976;73.248;2022-12-26T04:04:40;49.55;;;20.77;;
63818;SDS011;49970;54.976;73.248;2022-12-26T04:07:29;35.63;;;18.45;;
63818;SDS011;49970;54.976;73.248;2022-12-26T04:10:21;64.38;;;28.08;;
63818;SDS011;49970;54.976;73.248;2022-12-26T04:13:12;67.53;;;29.13;;
63818;SDS011;49970;54.976;73.248;2022-12-26T04:16:42;62.50;;;29.83;;
63818;SDS011;49970;54.976;73.248;2022-12-26T04:22:33;31.48;;;15.68;;
63818;SDS011;49970;54.976;73.248;2022-12-26T04:26:00;17.08;;;8.23;;
63818;SDS011;49970;54.976;73.248;2022-12-26T04:28:50;16.02;;;8.18;;
63818;SDS011;49970;54.976;73.248;2022-12-26T04:31:38;13.93;;;6.57;;
63818;SDS011;49970;54.976;73.248;2022-12-26T04:34:33;9.13;;;4.63;;
63818;SDS011;49970;54.976;73.248;2022-12-26T04:37:45;4.10;;;3.70;;
63818;SDS011;49970;54.976;73.248;2022-12-26T04:40:35;3.45;;;3.20;;
63818;SDS011;49970;54.976;73.248;2022-12-26T04:43:22;3.72;;;3.42;;
63818;SDS011;49970;54.976;73.248;2022-12-26T04:46:07;4.45;;;3.05;;
63818;SDS011;49970;54.976;73.248;2022-12-26T04:48:34;3.15;;;2.83;;
63818;SDS011;49970;54.976;73.248;2022-12-26T04:51:29;3.80;;;2.92;;
63818;SDS011;49970;54.976;73.248;2022-12-26T04:53:56;4.18;;;2.70;;
63818;SDS011;49970;54.976;73.248;2022-12-26T04:56:22;3.85;;;3.65;;
63818;SDS011;49970;54.976;73.248;2022-12-26T04:58:53;3.50;;;3.15;;
63818;SDS011;49970;54.976;73.248;2022-12-26T05:01:20;13.95;;;2.83;;
63818;SDS011;49970;54.976;73.248;2022-12-26T05:04:22;7.93;;;4.85;;
63818;SDS011;49970;54.976;73.248;2022-12-26T05:07:10;10.65;;;4.75;;
63818;SDS011;49970;54.976;73.248;2022-12-26T05:09:59;14.52;;;6.15;;
63818;SDS011;49970;54.976;73.248;2022-12-26T05:12:26;16.15;;;7.13;;
63818;SDS011;49970;54.976;73.248;2022-12-26T05:14:53;16.13;;;9.00;;
63818;SDS011;49970;54.976;73.248;2022-12-26T05:17:19;12.43;;;7.60;;
63818;SDS011;49970;54.976;73.248;2022-12-26T05:20:04;11.55;;;5.80;;
63818;SDS011;49970;54.976;73.248;2022-12-26T05:22:49;12.30;;;6.22;;
63818;SDS011;49970;54.976;73.248;2022-12-26T05:25:36;10.60;;;5.80;;
63818;SDS011;49970;54.976;73.248;2022-12-26T05:28:24;6.80;;;4.28;;
63818;SDS011;49970;54.976;73.248;2022-12-26T05:31:07;11.07;;;4.90;;
63818;SDS011;49970;54.976;73.248;2022-12-26T05:33:51;4.80;;;3.33;;
63818;SDS011;49970;54.976;73.248;2022-12-26T05:36:49;6.25;;;3.42;;
63818;SDS011;49970;54.976;73.248;2022-12-26T05:39:18;6.65;;;2.75;;
63818;SDS011;49970;54.976;73.248;2022-12-26T05:41:44;2.47;;;2.13;;
63818;SDS011;49970;54.976;73.248;2022-12-26T05:44:10;2.75;;;2.42;;
63818;SDS011;49970;54.976;73.248;2022-12-26T05:46:37;3.97;;;3.10;;
63818;SDS011;49970;54.976;73.248;2022-12-26T05:49:04;5.13;;;2.75;;
63818;SDS011;49970;54.976;73.248;2022-12-26T05:51:31;4.03;;;3.15;;
63818;SDS011;49970;54.976;73.248;2022-12-26T05:54:08;5.63;;;2.50;;
63818;SDS011;49970;54.976;73.248;2022-12-26T05:56:34;2.90;;;2.35;;
63818;SDS011;49970;54.976;73.248;2022-12-26T05:59:00;7.45;;;2.67;;
63818;SDS011;49970;54.976;73.248;2022-12-26T06:01:27;5.65;;;2.90;;
63818;SDS011;49970;54.976;73.248;2022-12-26T06:03:58;3.78;;;2.78;;
63818;SDS011;49970;54.976;73.248;2022-12-26T06:06:25;6.13;;;3.13;;
63818;SDS011;49970;54.976;73.248;2022-12-26T06:08:53;3.90;;;2.50;;
63818;SDS011;49970;54.976;73.248;2022-12-26T06:11:21;3.28;;;2.97;;
63818;SDS011;49970;54.976;73.248;2022-12-26T06:13:59;3.67;;;2.42;;
63818;SDS011;49970;54.976;73.248;2022-12-26T06:16:26;3.95;;;2.33;;
63818;SDS011;49970;54.976;73.248;2022-12-26T06:18:56;2.63;;;2.15;;
63818;SDS011;49970;54.976;73.248;2022-12-26T06:21:22;3.63;;;1.98;;
63818;SDS011;49970;54.976;73.248;2022-12-26T06:23:49;2.67;;;1.95;;
63818;SDS011;49970;54.976;73.248;2022-12-26T06:26:15;2.92;;;2.72;;
63818;SDS011;49970;54.976;73.248;2022-12-26T06:28:42;7.07;;;2.70;;
63818;SDS011;49970;54.976;73.248;2022-12-26T06:31:12;2.05;;;1.80;;
63818;SDS011;49970;54.976;73.248;2022-12-26T06:33:46;5.57;;;2.20;;
63818;SDS011;49970;54.976;73.248;2022-12-26T06:36:27;2.60;;;1.70;;
63818;SDS011;49970;54.976;73.248;2022-12-26T06:38:55;1.92;;;1.58;;
63818;SDS011;49970;54.976;73.248;2022-12-26T06:41:22;10.18;;;2.20;;
63818;SDS011;49970;54.976;73.248;2022-12-26T06:43:49;3.22;;;2.22;;
63818;SDS011;49970;54.976;73.248;2022-12-26T06:46:17;3.80;;;2.35;;
63818;SDS011;49970;54.976;73.248;2022-12-26T06:48:46;3.88;;;2.35;;
63818;SDS011;49970;54.976;73.248;2022-12-26T06:51:17;2.58;;;2.22;;
63818;SDS011;49970;54.976;73.248;2022-12-26T06:53:46;13.20;;;2.20;;
63818;SDS011;49970;54.976;73.248;2022-12-26T06:56:23;2.92;;;2.42;;
63818;SDS011;49970;54.976;73.248;2022-12-26T06:58:54;2.70;;;2.50;;
63818;SDS011;49970;54.976;73.248;2022-12-26T07:01:30;2.53;;;2.17;;
63818;SDS011;49970;54.976;73.248;2022-12-26T07:03:58;2.25;;;2.05;;
63818;SDS011;49970;54.976;73.248;2022-12-26T07:06:29;2.33;;;1.90;;
63818;SDS011;49970;54.976;73.248;2022-12-26T07:09:01;2.00;;;1.83;;
63818;SDS011;49970;54.976;73.248;2022-12-26T07:11:39;11.43;;;2.28;;
63818;SDS011;49970;54.976;73.248;2022-12-26T07:14:07;3.08;;;2.88;;
63818;SDS011;49970;54.976;73.248;2022-12-26T07:16:34;2.78;;;2.58;;
63818;SDS011;49970;54.976;73.248;2022-12-26T07:19:08;9.40;;;2.33;;
63818;SDS011;49970;54.976;73.248;2022-12-26T07:21:36;2.60;;;2.40;;
63818;SDS011;49970;54.976;73.248;2022-12-26T07:24:14;2.35;;;2.20;;
63818;SDS011;49970;54.976;73.248;2022-12-26T07:26:44;8.30;;;2.13;;
63818;SDS011;49970;54.976;73.248;2022-12-26T07:29:13;4.55;;;2.08;;
63818;SDS011;49970;54.976;73.248;2022-12-26T07:31:40;2.20;;;2.00;;
63818;SDS011;49970;54.976;73.248;2022-12-26T07:34:07;2.25;;;1.80;;
63818;SDS011;49970;54.976;73.248;2022-12-26T07:36:34;3.33;;;2.38;;
63818;SDS011;49970;54.976;73.248;2022-12-26T07:39:00;6.20;;;2.15;;
63818;SDS011;49970;54.976;73.248;2022-12-26T07:41:27;4.97;;;3.25;;
63818;SDS011;49970;54.976;73.248;2022-12-26T07:44:11;4.22;;;2.92;;
63818;SDS011;49970;54.976;73.248;2022-12-26T07:46:38;8.20;;;3.15;;
63818;SDS011;49970;54.976;73.248;2022-12-26T07:49:04;5.30;;;2.88;;
63818;SDS011;49970;54.976;73.248;2022-12-26T07:51:30;4.82;;;2.10;;
63818;SDS011;49970;54.976;73.248;2022-12-26T07:53:58;6.20;;;3.25;;
63818;SDS011;49970;54.976;73.248;2022-12-26T07:56:32;6.45;;;3.88;;
63818;SDS011;49970;54.976;73.248;2022-12-26T07:58:59;8.60;;;3.15;;
63818;SDS011;49970;54.976;73.248;2022-12-26T08:01:25;7.38;;;3.20;;
63818;SDS011;49970;54.976;73.248;2022-12-26T08:03:52;9.18;;;3.45;;
63818;SDS011;49970;54.976;73.248;2022-12-26T08:06:19;6.32;;;3.40;;
63818;SDS011;49970;54.976;73.248;2022-12-26T08:08:46;13.48;;;3.90;;
63818;SDS011;49970;54.976;73.248;2022-12-26T08:11:13;7.22;;;3.35;;
63818;SDS011;49970;54.976;73.248;2022-12-26T08:13:51;7.50;;;3.55;;
63818;SDS011;49970;54.976;73.248;2022-12-26T08:16:18;3.70;;;2.55;;
63818;SDS011;49970;54.976;73.248;2022-12-26T08:18:44;6.38;;;2.53;;
63818;SDS011;49970;54.976;73.248;2022-12-26T08:21:11;4.65;;;3.05;;
63818;SDS011;49970;54.976;73.248;2022-12-26T08:23:42;3.17;;;2.20;;
63818;SDS011;49970;54.976;73.248;2022-12-26T08:26:11;7.43;;;3.00;;
63818;SDS011;49970;54.976;73.248;2022-12-26T08:28:40;2.33;;;2.13;;
63818;SDS011;49970;54.976;73.248;2022-12-26T08:31:17;5.07;;;1.75;;
63818;SDS011;49970;54.976;73.248;2022-12-26T08:33:45;2.47;;;1.67;;
63818;SDS011;49970;54.976;73.248;2022-12-26T08:36:21;2.63;;;1.67;;
63818;SDS011;49970;54.976;73.248;2022-12-26T08:38:48;2.85;;;1.55;;
63818;SDS011;49970;54.976;73.248;2022-12-26T08:41:14;5.95;;;1.88;;
63818;SDS011;49970;54.976;73.248;2022-12-26T08:43:42;5.03;;;1.95;;
63818;SDS011;49970;54.976;73.248;2022-12-26T08:46:09;2.47;;;2.10;;
63818;SDS011;49970;54.976;73.248;2022-12-26T08:48:41;4.88;;;2.80;;
63818;SDS011;49970;54.976;73.248;2022-12-26T08:51:10;11.55;;;1.90;;
63818;SDS011;49970;54.976;73.248;2022-12-26T08:53:47;2.45;;;1.75;;
63818;SDS011;49970;54.976;73.248;2022-12-26T08:56:15;2.60;;;2.17;;
63818;SDS011;49970;54.976;73.248;2022-12-26T08:58:43;4.90;;;2.03;;
63818;SDS011;49970;54.976;73.248;2022-12-26T09:01:11;2.50;;;2.35;;
63818;SDS011;49970;54.976;73.248;2022-12-26T09:03:39;1.70;;;1.60;;
63818;SDS011;49970;54.976;73.248;2022-12-26T09:06:06;1.85;;;1.75;;
63818;SDS011;49970;54.976;73.248;2022-12-26T09:08:38;1.85;;;1.65;;
63818;SDS011;49970;54.976;73.248;2022-12-26T09:11:17;11.60;;;1.83;;
63818;SDS011;49970;54.976;73.248;2022-12-26T09:13:45;2.22;;;2.03;;
63818;SDS011;49970;54.976;73.248;2022-12-26T09:16:19;2.47;;;2.17;;
63818;SDS011;49970;54.976;73.248;2022-12-26T09:18:59;2.28;;;1.92;;
63818;SDS011;49970;54.976;73.248;2022-12-26T09:21:27;8.40;;;2.20;;
63818;SDS011;49970;54.976;73.248;2022-12-26T09:23:55;8.43;;;2.17;;
63818;SDS011;49970;54.976;73.248;2022-12-26T09:26:25;7.22;;;2.22;;
63818;SDS011;49970;54.976;73.248;2022-12-26T09:28:52;2.30;;;1.42;;
63818;SDS011;49970;54.976;73.248;2022-12-26T09:31:22;13.85;;;2.00;;
63818;SDS011;49970;54.976;73.248;2022-12-26T09:33:51;3.65;;;2.38;;
63818;SDS011;49970;54.976;73.248;2022-12-26T09:36:26;2.88;;;1.98;;
63818;SDS011;49970;54.976;73.248;2022-12-26T09:38:55;2.45;;;2.08;;
63818;SDS011;49970;54.976;73.248;2022-12-26T09:46:44;2.60;;;2.28;;
63818;SDS011;49970;54.976;73.248;2022-12-26T09:49:31;2.92;;;2.55;;
63818;SDS011;49970;54.976;73.248;2022-12-26T09:52:03;3.88;;;2.30;;
63818;SDS011;49970;54.976;73.248;2022-12-26T09:54:37;5.28;;;2.92;;
63818;SDS011;49970;54.976;73.248;2022-12-26T09:57:10;12.15;;;3.97;;
63818;SDS011;49970;54.976;73.248;2022-12-26T09:59:51;25.40;;;8.68;;
63818;SDS011;49970;54.976;73.248;2022-12-26T10:02:26;19.02;;;6.47;;
63818;SDS011;49970;54.976;73.248;2022-12-26T10:04:53;8.45;;;4.85;;
63818;SDS011;49970;54.976;73.248;2022-12-26T10:07:21;13.15;;;7.85;;
63818;SDS011;49970;54.976;73.248;2022-12-26T10:15:35;4.35;;;3.33;;
63818;SDS011;49970;54.976;73.248;2022-12-26T10:21:03;9.18;;;4.03;;
63818;SDS011;49970;54.976;73.248;2022-12-26T10:23:50;9.13;;;4.00;;
63818;SDS011;49970;54.976;73.248;2022-12-26T10:26:28;8.23;;;3.08;;
63818;SDS011;49970;54.976;73.248;2022-12-26T10:31:41;7.20;;;3.92;;
63818;SDS011;49970;54.976;73.248;2022-12-26T10:37:28;7.15;;;3.10;;
63818;SDS011;49970;54.976;73.248;2022-12-26T10:40:04;4.10;;;2.92;;
63818;SDS011;49970;54.976;73.248;2022-12-26T10:42:35;5.30;;;4.18;;
63818;SDS011;49970;54.976;73.248;2022-12-26T10:45:14;3.97;;;2.85;;
63818;SDS011;49970;54.976;73.248;2022-12-26T10:47:49;4.90;;;2.72;;
63818;SDS011;49970;54.976;73.248;2022-12-26T10:50:18;8.68;;;3.38;;
63818;SDS011;49970;54.976;73.248;2022-12-26T10:52:48;4.28;;;3.85;;
63818;SDS011;49970;54.976;73.248;2022-12-26T10:55:17;4.95;;;4.32;;
63818;SDS011;49970;54.976;73.248;2022-12-26T10:57:46;4.78;;;3.63;;
63818;SDS011;49970;54.976;73.248;2022-12-26T11:00:22;6.10;;;4.03;;
63818;SDS011;49970;54.976;73.248;2022-12-26T11:03:12;10.00;;;5.63;;
63818;SDS011;49970;54.976;73.248;2022-12-26T11:05:42;7.95;;;5.25;;
63818;SDS011;49970;54.976;73.248;2022-12-26T11:08:17;14.90;;;7.65;;
63818;SDS011;49970;54.976;73.248;2022-12-26T11:10:47;17.80;;;6.40;;
63818;SDS011;49970;54.976;73.248;2022-12-26T11:13:55;17.35;;;7.22;;
63818;SDS011;49970;54.976;73.248;2022-12-26T11:16:22;23.08;;;5.45;;
63818;SDS011;49970;54.976;73.248;2022-12-26T11:18:56;14.63;;;6.28;;
63818;SDS011;49970;54.976;73.248;2022-12-26T11:21:33;9.40;;;3.80;;
63818;SDS011;49970;54.976;73.248;2022-12-26T11:26:32;12.13;;;5.07;;
63818;SDS011;49970;54.976;73.248;2022-12-26T11:31:37;18.27;;;5.78;;
63818;SDS011;49970;54.976;73.248;2022-12-26T11:34:06;20.45;;;7.05;;
63818;SDS011;49970;54.976;73.248;2022-12-26T11:36:36;18.13;;;8.32;;
63818;SDS011;49970;54.976;73.248;2022-12-26T11:39:05;22.60;;;7.05;;
63818;SDS011;49970;54.976;73.248;2022-12-26T11:41:45;11.77;;;5.63;;
63818;SDS011;49970;54.976;73.248;2022-12-26T11:44:24;12.85;;;5.57;;
63818;SDS011;49970;54.976;73.248;2022-12-26T11:46:55;10.98;;;4.60;;
63818;SDS011;49970;54.976;73.248;2022-12-26T11:49:33;9.73;;;3.80;;
63818;SDS011;49970;54.976;73.248;2022-12-26T11:54:58;7.82;;;3.78;;
63818;SDS011;49970;54.976;73.248;2022-12-26T11:57:31;7.28;;;3.45;;
63818;SDS011;49970;54.976;73.248;2022-12-26T12:00:17;4.63;;;3.78;;
63818;SDS011;49970;54.976;73.248;2022-12-26T12:02:46;6.80;;;4.53;;
63818;SDS011;49970;54.976;73.248;2022-12-26T12:08:00;5.50;;;4.82;;
63818;SDS011;49970;54.976;73.248;2022-12-26T12:13:20;10.65;;;3.97;;
63818;SDS011;49970;54.976;73.248;2022-12-26T12:15:57;5.50;;;3.63;;
63818;SDS011;49970;54.976;73.248;2022-12-26T12:21:26;7.70;;;4.35;;
63818;SDS011;49970;54.976;73.248;2022-12-26T12:24:24;10.10;;;5.03;;
63818;SDS011;49970;54.976;73.248;2022-12-26T12:27:05;9.70;;;4.55;;
63818;SDS011;49970;54.976;73.248;2022-12-26T12:42:24;7.75;;;5.10;;
63818;SDS011;49970;54.976;73.248;2022-12-26T12:50:50;23.67;;;8.45;;
63818;SDS011;49970;54.976;73.248;2022-12-26T12:53:22;12.45;;;6.43;;
63818;SDS011;49970;54.976;73.248;2022-12-26T12:56:05;14.40;;;4.85;;
63818;SDS011;49970;54.976;73.248;2022-12-26T13:01:44;9.75;;;6.15;;
63818;SDS011;49970;54.976;73.248;2022-12-26T13:07:04;12.25;;;5.68;;
63818;SDS011;49970;54.976;73.248;2022-12-26T13:12:27;11.27;;;7.03;;
63818;SDS011;49970;54.976;73.248;2022-12-26T13:15:00;17.75;;;7.60;;
63818;SDS011;49970;54.976;73.248;2022-12-26T13:17:52;11.82;;;6.30;;
63818;SDS011;49970;54.976;73.248;2022-12-26T13:20:29;11.40;;;6.68;;
63818;SDS011;49970;54.976;73.248;2022-12-26T13:23:21;13.40;;;6.10;;
63818;SDS011;49970;54.976;73.248;2022-12-26T13:26:23;11.48;;;7.45;;
63818;SDS011;49970;54.976;73.248;2022-12-26T13:28:59;13.85;;;6.90;;
63818;SDS011;49970;54.976;73.248;2022-12-26T13:31:31;13.85;;;7.10;;
63818;SDS011;49970;54.976;73.248;2022-12-26T13:34:07;13.52;;;6.43;;
63818;SDS011;49970;54.976;73.248;2022-12-26T13:36:41;21.20;;;7.13;;
63818;SDS011;49970;54.976;73.248;2022-12-26T13:39:26;15.52;;;6.97;;
63818;SDS011;49970;54.976;73.248;2022-12-26T13:42:01;13.50;;;8.05;;
63818;SDS011;49970;54.976;73.248;2022-12-26T13:50:52;14.00;;;7.32;;
63818;SDS011;49970;54.976;73.248;2022-12-26T13:53:30;15.65;;;7.97;;
63818;SDS011;49970;54.976;73.248;2022-12-26T13:58:42;18.25;;;7.03;;
63818;SDS011;49970;54.976;73.248;2022-12-26T14:04:05;19.40;;;7.00;;
63818;SDS011;49970;54.976;73.248;2022-12-26T14:14:02;12.23;;;7.13;;
63818;SDS011;49970;54.976;73.248;2022-12-26T14:16:18;14.93;;;7.25;;
63818;SDS011;49970;54.976;73.248;2022-12-26T14:21:59;8.57;;;5.03;;
63818;SDS011;49970;54.976;73.248;2022-12-26T14:27:25;7.65;;;4.28;;
63818;SDS011;49970;54.976;73.248;2022-12-26T14:33:28;13.10;;;4.57;;
63818;SDS011;49970;54.976;73.248;2022-12-26T14:38:49;5.82;;;3.75;;
63818;SDS011;49970;54.976;73.248;2022-12-26T14:45:10;5.30;;;3.67;;
63818;SDS011;49970;54.976;73.248;2022-12-26T14:47:53;5.38;;;3.92;;
63818;SDS011;49970;54.976;73.248;2022-12-26T14:55:56;5.30;;;4.03;;
63818;SDS011;49970;54.976;73.248;2022-12-26T15:09:24;5.57;;;3.55;;
63818;SDS011;49970;54.976;73.248;2022-12-26T15:15:27;6.72;;;4.00;;
63818;SDS011;49970;54.976;73.248;2022-12-26T15:21:13;9.38;;;3.10;;
63818;SDS011;49970;54.976;73.248;2022-12-26T15:29:50;7.38;;;3.15;;
63818;SDS011;49970;54.976;73.248;2022-12-26T15:35:22;5.43;;;3.95;;
63818;SDS011;49970;54.976;73.248;2022-12-26T15:38:13;2.50;;;2.30;;
63818;SDS011;49970;54.976;73.248;2022-12-26T15:46:17;10.80;;;5.35;;
63818;SDS011;49970;54.976;73.248;2022-12-26T15:51:48;6.82;;;3.80;;
63818;SDS011;49970;54.976;73.248;2022-12-26T16:11:16;6.25;;;3.40;;
63818;SDS011;49970;54.976;73.248;2022-12-26T16:13:49;5.68;;;3.47;;
63818;SDS011;49970;54.976;73.248;2022-12-26T16:16:23;12.63;;;3.67;;
63818;SDS011;49970;54.976;73.248;2022-12-26T16:18:51;5.28;;;3.45;;
63818;SDS011;49970;54.976;73.248;2022-12-26T16:21:17;3.20;;;2.90;;
63818;SDS011;49970;54.976;73.248;2022-12-26T16:24:05;4.78;;;3.22;;
63818;SDS011;49970;54.976;73.248;2022-12-26T16:26:39;5.43;;;3.65;;
63818;SDS011;49970;54.976;73.248;2022-12-26T16:29:08;4.15;;;3.75;;
63818;SDS011;49970;54.976;73.248;2022-12-26T16:31:40;3.47;;;3.08;;
63818;SDS011;49970;54.976;73.248;2022-12-26T16:34:17;5.72;;;3.05;;
63818;SDS011;49970;54.976;73.248;2022-12-26T16:36:45;7.20;;;3.53;;
63818;SDS011;49970;54.976;73.248;2022-12-26T16:39:25;8.90;;;3.45;;
63818;SDS011;49970;54.976;73.248;2022-12-26T16:42:03;10.82;;;4.90;;
63818;SDS011;49970;54.976;73.248;2022-12-26T16:44:38;11.13;;;4.28;;
63818;SDS011;49970;54.976;73.248;2022-12-26T16:47:09;6.68;;;4.70;;
63818;SDS011;49970;54.976;73.248;2022-12-26T16:49:47;11.90;;;5.20;;
63818;SDS011;49970;54.976;73.248;2022-12-26T16:52:29;6.53;;;4.55;;
63818;SDS011;49970;54.976;73.248;2022-12-26T16:58:15;8.18;;;4.88;;
63818;SDS011;49970;54.976;73.248;2022-12-26T17:00:46;11.82;;;5.15;;
63818;SDS011;49970;54.976;73.248;2022-12-26T17:03:32;4.00;;;3.65;;
63818;SDS011;49970;54.976;73.248;2022-12-26T17:06:13;5.72;;;3.63;;
63818;SDS011;49970;54.976;73.248;2022-12-26T17:08:44;19.95;;;4.03;;
63818;SDS011;49970;54.976;73.248;2022-12-26T17:11:12;6.90;;;4.40;;
63818;SDS011;49970;54.976;73.248;2022-12-26T17:13:39;5.88;;;4.07;;
63818;SDS011;49970;54.976;73.248;2022-12-26T17:16:20;6.20;;;3.30;;
63818;SDS011;49970;54.976;73.248;2022-12-26T17:18:49;5.82;;;3.83;;
63818;SDS011;49970;54.976;73.248;2022-12-26T17:21:21;5.80;;;3.38;;
63818;SDS011;49970;54.976;73.248;2022-12-26T17:24:10;7.73;;;3.57;;
63818;SDS011;49970;54.976;73.248;2022-12-26T17:29:59;4.85;;;3.92;;
63818;SDS011;49970;54.976;73.248;2022-12-26T17:32:53;8.35;;;4.25;;
63818;SDS011;49970;54.976;73.248;2022-12-26T17:35:31;5.05;;;4.07;;
63818;SDS011;49970;54.976;73.248;2022-12-26T17:38:05;6.13;;;4.18;;
63818;SDS011;49970;54.976;73.248;2022-12-26T17:40:37;7.57;;;4.20;;
63818;SDS011;49970;54.976;73.248;2022-12-26T17:45:47;9.95;;;4.72;;
63818;SDS011;49970;54.976;73.248;2022-12-26T17:48:15;6.80;;;3.80;;
63818;SDS011;49970;54.976;73.248;2022-12-26T17:50:43;5.88;;;4.43;;
63818;SDS011;49970;54.976;73.248;2022-12-26T17:53:30;8.23;;;5.00;;
63818;SDS011;49970;54.976;73.248;2022-12-26T17:55:59;10.23;;;5.15;;
63818;SDS011;49970;54.976;73.248;2022-12-26T17:58:36;4.90;;;4.50;;
63818;SDS011;49970;54.976;73.248;2022-12-26T18:01:13;15.98;;;4.85;;
63818;SDS011;49970;54.976;73.248;2022-12-26T18:03:50;12.85;;;4.43;;
63818;SDS011;49970;54.976;73.248;2022-12-26T18:06:17;7.85;;;4.28;;
63818;SDS011;49970;54.976;73.248;2022-12-26T18:08:54;6.30;;;4.38;;
63818;SDS011;49970;54.976;73.248;2022-12-26T18:11:20;5.47;;;3.80;;
63818;SDS011;49970;54.976;73.248;2022-12-26T18:13:47;10.00;;;4.57;;
63818;SDS011;49970;54.976;73.248;2022-12-26T18:16:23;5.93;;;4.55;;
63818;SDS011;49970;54.976;73.248;2022-12-26T18:18:58;6.45;;;4.13;;
63818;SDS011;49970;54.976;73.248;2022-12-26T18:21:24;6.75;;;4.28;;
63818;SDS011;49970;54.976;73.248;2022-12-26T18:23:50;4.65;;;3.63;;
63818;SDS011;49970;54.976;73.248;2022-12-26T18:26:27;12.35;;;4.10;;
63818;SDS011;49970;54.976;73.248;2022-12-26T18:28:55;8.95;;;5.32;;
63818;SDS011;49970;54.976;73.248;2022-12-26T18:31:22;11.38;;;5.28;;
63818;SDS011;49970;54.976;73.248;2022-12-26T18:33:51;8.73;;;4.95;;
63818;SDS011;49970;54.976;73.248;2022-12-26T18:36:25;12.02;;;4.80;;
63818;SDS011;49970;54.976;73.248;2022-12-26T18:38:54;10.70;;;5.70;;
63818;SDS011;49970;54.976;73.248;2022-12-26T18:41:22;10.68;;;5.25;;